createdAt,value
2022-11-24T00:01:32.613Z,100.00
2022-11-24T00:04:06.743Z,100.00
2022-11-24T00:06:38.948Z,100.00
2022-11-24T00:09:11.517Z,100.00
2022-11-24T00:11:43.688Z,100.00
2022-11-24T00:14:15.853Z,100.00
2022-11-24T00:16:47.978Z,100.00
2022-11-24T00:19:20.147Z,100.00
2022-11-24T00:21:52.175Z,100.00
2022-11-24T00:24:24.312Z,100.00
2022-11-24T00:26:56.432Z,100.00
2022-11-24T00:29:28.580Z,100.00
2022-11-24T00:32:02.697Z,100.00
2022-11-24T00:34:35.281Z,100.00
2022-11-24T00:37:07.720Z,100.00
2022-11-24T00:39:39.798Z,100.00
2022-11-24T00:42:11.971Z,100.00
2022-11-24T00:44:44.114Z,100.00
2022-11-24T00:47:16.333Z,100.00
2022-11-24T00:49:48.572Z,100.00
2022-11-24T00:52:20.686Z,100.00
2022-11-24T00:54:53.077Z,100.00
2022-11-24T00:57:25.311Z,100.00
2022-11-24T00:59:57.367Z,100.00
2022-11-24T01:02:29.478Z,100.00
2022-11-24T01:05:04.466Z,100.00
2022-11-24T01:07:36.593Z,100.00
2022-11-24T01:10:09.370Z,100.00
2022-11-24T01:12:41.578Z,100.00
2022-11-24T01:15:13.855Z,100.00
2022-11-24T01:17:46.285Z,100.00
2022-11-24T01:20:18.641Z,100.00
2022-11-24T01:22:51.065Z,100.00
2022-11-24T01:25:23.459Z,100.00
2022-11-24T01:27:55.712Z,100.00
2022-11-24T01:30:27.780Z,100.00
2022-11-24T01:32:59.914Z,100.00
2022-11-24T01:35:31.939Z,100.00
2022-11-24T01:38:03.982Z,100.00
2022-11-24T01:40:36.034Z,100.00
2022-11-24T01:43:18.543Z,100.00
2022-11-24T01:45:51.146Z,100.00
2022-11-24T01:48:38.376Z,100.00
2022-11-24T01:51:20.938Z,100.00
2022-11-24T01:54:03.183Z,100.00
2022-11-24T01:56:37.399Z,100.00
2022-11-24T01:59:12.699Z,100.00
2022-11-24T02:01:45.355Z,100.00
2022-11-24T02:04:24.176Z,100.00
2022-11-24T02:07:00.202Z,100.00
2022-11-24T02:09:52.457Z,100.00
2022-11-24T02:12:26.984Z,100.00
2022-11-24T02:14:59.683Z,100.00
2022-11-24T02:17:31.814Z,100.00
2022-11-24T02:20:08.400Z,100.00
2022-11-24T02:23:07.420Z,100.00
2022-11-24T02:26:03.838Z,100.00
2022-11-24T02:28:36.514Z,100.00
2022-11-24T02:31:09.374Z,100.00
2022-11-24T02:33:41.581Z,100.00
2022-11-24T02:36:13.717Z,100.00
2022-11-24T02:38:45.885Z,100.00
2022-11-24T02:41:22.153Z,100.00
2022-11-24T02:44:01.506Z,100.00
2022-11-24T02:46:33.616Z,100.00
2022-11-24T02:49:05.952Z,100.00
2022-11-24T02:51:38.127Z,100.00
2022-11-24T02:54:10.287Z,100.00
2022-11-24T02:56:42.463Z,100.00
2022-11-24T02:59:14.624Z,100.00
2022-11-24T03:01:46.815Z,100.00
2022-11-24T03:04:19.011Z,100.00
2022-11-24T03:06:51.252Z,100.00
2022-11-24T03:09:23.349Z,100.00
2022-11-24T03:11:55.470Z,100.00
2022-11-24T03:14:27.651Z,100.00
2022-11-24T03:16:59.857Z,100.00
2022-11-24T03:19:31.961Z,100.00
2022-11-24T03:22:04.163Z,100.00
2022-11-24T03:24:36.448Z,100.00
2022-11-24T03:27:08.727Z,100.00
2022-11-24T03:29:40.937Z,100.00
2022-11-24T03:32:13.062Z,100.00
2022-11-24T03:34:45.281Z,100.00
2022-11-24T03:37:17.413Z,100.00
2022-11-24T03:39:49.828Z,100.00
2022-11-24T03:42:21.980Z,100.00
2022-11-24T03:44:54.208Z,100.00
2022-11-24T03:47:26.287Z,100.00
2022-11-24T03:49:58.392Z,100.00
2022-11-24T03:52:30.564Z,100.00
2022-11-24T03:55:02.674Z,100.00
2022-11-24T03:57:34.871Z,100.00
2022-11-24T04:00:08.208Z,100.00
2022-11-24T04:02:40.316Z,100.00
2022-11-24T04:05:12.421Z,100.00
2022-11-24T04:07:44.609Z,100.00
2022-11-24T04:10:16.865Z,100.00
2022-11-24T04:12:49.027Z,100.00
2022-11-24T04:15:21.990Z,100.00
2022-11-24T04:17:55.737Z,100.00
2022-11-24T04:20:28.043Z,100.00
2022-11-24T04:23:00.228Z,100.00
2022-11-24T04:25:32.428Z,100.00
2022-11-24T04:28:04.870Z,100.00
2022-11-24T04:30:38.707Z,100.00
2022-11-24T04:33:10.944Z,100.00
2022-11-24T04:35:42.964Z,100.00
2022-11-24T04:39:25.984Z,100.00
2022-11-24T04:41:06.945Z,100.00
2022-11-24T04:43:40.785Z,100.00
2022-11-24T04:46:13.162Z,100.00
2022-11-24T04:48:45.238Z,100.00
2022-11-24T04:51:17.249Z,100.00
2022-11-24T04:53:49.625Z,100.00
2022-11-24T04:56:21.794Z,100.00
2022-11-24T04:58:53.823Z,100.00
2022-11-24T05:01:26.267Z,100.00
2022-11-24T05:03:58.908Z,100.00
2022-11-24T05:06:31.094Z,100.00
2022-11-24T05:09:03.766Z,100.00
2022-11-24T05:11:35.898Z,100.00
2022-11-24T05:14:07.975Z,100.00
2022-11-24T05:16:40.063Z,100.00
2022-11-24T05:19:12.288Z,100.00
2022-11-24T05:21:44.279Z,100.00
2022-11-24T05:24:16.286Z,100.00
2022-11-24T05:26:48.215Z,100.00
2022-11-24T05:29:20.144Z,100.00
2022-11-24T05:31:52.235Z,100.00
2022-11-24T05:34:24.630Z,100.00
2022-11-24T05:37:03.044Z,100.00
2022-11-24T05:39:36.327Z,100.00
2022-11-24T05:42:27.438Z,100.00
2022-11-24T05:44:59.818Z,100.00
2022-11-24T05:47:32.468Z,100.00
2022-11-24T05:50:05.061Z,100.00
2022-11-24T05:52:37.219Z,100.00
2022-11-24T05:55:11.656Z,100.00
2022-11-24T05:57:43.673Z,100.00
2022-11-24T06:00:18.258Z,100.00
2022-11-24T06:02:50.279Z,100.00
2022-11-24T06:05:22.446Z,100.00
2022-11-24T06:07:55.295Z,100.00
2022-11-24T06:10:28.361Z,100.00
2022-11-24T06:13:06.285Z,100.00
2022-11-24T06:15:38.679Z,100.00
2022-11-24T06:18:10.728Z,100.00
2022-11-24T06:20:53.086Z,100.00
2022-11-24T06:23:35.304Z,100.00
2022-11-24T06:26:07.529Z,100.00
2022-11-24T06:28:39.588Z,100.00
2022-11-24T06:31:11.823Z,100.00
2022-11-24T06:33:43.787Z,100.00
2022-11-24T06:36:15.884Z,100.00
2022-11-24T06:38:47.916Z,100.00
2022-11-24T06:41:20.376Z,100.00
2022-11-24T06:43:52.425Z,100.00
2022-11-24T06:46:24.810Z,100.00
2022-11-24T06:48:56.863Z,100.00
2022-11-24T06:51:29.126Z,100.00
2022-11-24T06:54:01.839Z,100.00
2022-11-24T06:56:34.092Z,100.00
2022-11-24T06:59:06.127Z,100.00
2022-11-24T07:01:38.140Z,100.00
2022-11-24T07:04:11.452Z,100.00
2022-11-24T07:06:44.070Z,100.00
2022-11-24T07:09:16.162Z,100.00
2022-11-24T07:11:48.216Z,100.00
2022-11-24T07:14:20.205Z,100.00
2022-11-24T07:16:52.284Z,100.00
2022-11-24T07:19:25.225Z,100.00
2022-11-24T07:21:57.609Z,100.00
2022-11-24T07:24:29.597Z,100.00
2022-11-24T07:27:01.529Z,100.00
2022-11-24T07:29:33.730Z,100.00
2022-11-24T07:32:06.047Z,100.00
2022-11-24T07:34:38.050Z,100.00
2022-11-24T07:37:10.058Z,100.00
2022-11-24T07:39:42.042Z,100.00
2022-11-24T07:42:13.972Z,100.00
2022-11-24T07:44:45.999Z,100.00
2022-11-24T07:47:17.925Z,100.00
2022-11-24T07:49:50.067Z,100.00
2022-11-24T07:52:22.101Z,100.00
2022-11-24T07:54:54.193Z,100.00
2022-11-24T07:57:26.438Z,100.00
2022-11-24T07:59:58.417Z,100.00
2022-11-24T08:02:30.436Z,100.00
2022-11-24T08:05:02.492Z,100.00
2022-11-24T08:07:34.611Z,100.00
2022-11-24T08:10:07.386Z,100.00
2022-11-24T08:12:39.475Z,100.00
2022-11-24T08:15:11.694Z,100.00
2022-11-24T08:17:43.742Z,100.00
2022-11-24T08:20:15.898Z,100.00
2022-11-24T08:22:47.963Z,100.00
2022-11-24T08:25:20.027Z,100.00
2022-11-24T08:27:51.949Z,100.00
2022-11-24T08:30:24.148Z,100.00
2022-11-24T08:32:59.334Z,100.00
2022-11-24T08:35:31.303Z,100.00
2022-11-24T08:38:04.767Z,100.00
2022-11-24T08:40:36.959Z,100.00
2022-11-24T08:43:09.000Z,100.00
2022-11-24T08:45:41.816Z,100.00
2022-11-24T08:48:14.054Z,100.00
2022-11-24T08:50:46.118Z,100.00
2022-11-24T08:53:18.957Z,100.00
2022-11-24T08:55:51.152Z,100.00
2022-11-24T08:58:23.122Z,100.00
2022-11-24T09:00:55.636Z,100.00
2022-11-24T09:03:27.969Z,100.00
2022-11-24T09:06:00.205Z,100.00
2022-11-24T09:08:33.139Z,100.00
2022-11-24T09:11:14.247Z,100.00
2022-11-24T09:13:46.257Z,100.00
2022-11-24T09:16:25.962Z,100.00
2022-11-24T09:19:04.879Z,100.00
2022-11-24T09:21:39.068Z,100.00
2022-11-24T09:24:11.426Z,100.00
2022-11-24T09:26:47.692Z,99.63
2022-11-24T09:29:20.021Z,100.00
2022-11-24T09:31:51.989Z,100.00
2022-11-24T09:34:24.055Z,98.41
2022-11-24T09:36:56.025Z,98.50
2022-11-24T09:39:28.052Z,97.58
2022-11-24T09:42:06.614Z,96.96
2022-11-24T09:44:56.468Z,96.27
2022-11-24T09:48:01.567Z,95.40
2022-11-24T09:50:40.020Z,95.67
2022-11-24T09:53:56.662Z,95.07
2022-11-24T09:56:33.670Z,94.28
2022-11-24T09:59:15.671Z,95.10
2022-11-24T10:01:49.761Z,95.29
2022-11-24T10:04:35.510Z,95.50
2022-11-24T10:07:23.938Z,94.11
2022-11-24T10:10:02.474Z,93.58
2022-11-24T10:12:56.055Z,92.69
2022-11-24T10:15:54.661Z,91.07
2022-11-24T10:19:03.495Z,91.77
2022-11-24T10:22:08.643Z,90.99
2022-11-24T10:25:18.246Z,91.47
2022-11-24T10:28:02.472Z,93.16
2022-11-24T10:30:34.494Z,93.68
2022-11-24T10:33:15.839Z,92.84
2022-11-24T10:36:04.588Z,92.37
2022-11-24T10:38:51.004Z,91.59
2022-11-24T10:41:36.833Z,91.89
2022-11-24T10:44:14.256Z,92.21
2022-11-24T10:46:46.534Z,92.57
2022-11-24T10:49:32.835Z,93.33
2022-11-24T10:52:15.295Z,93.58
2022-11-24T10:55:13.811Z,93.41
2022-11-24T10:57:46.000Z,93.09
2022-11-24T11:00:20.957Z,92.48
2022-11-24T11:03:21.899Z,91.17
2022-11-24T11:06:14.762Z,91.88
2022-11-24T11:08:46.819Z,90.72
2022-11-24T11:11:30.766Z,90.80
2022-11-24T11:14:13.151Z,91.11
2022-11-24T11:16:54.400Z,90.70
2022-11-24T11:19:49.749Z,90.59
2022-11-24T11:22:26.092Z,90.03
2022-11-24T11:25:10.030Z,90.21
2022-11-24T11:27:42.815Z,89.38
2022-11-24T11:36:20.463Z,88.44
2022-11-24T11:38:53.173Z,88.29
2022-11-24T11:41:33.261Z,87.46
2022-11-24T11:44:38.523Z,86.90
2022-11-24T11:47:42.693Z,88.04
2022-11-24T11:50:17.845Z,87.25
2022-11-24T11:53:26.419Z,86.40
2022-11-24T11:56:33.528Z,85.25
2022-11-24T11:59:49.939Z,85.31
2022-11-24T12:03:15.498Z,85.58
2022-11-24T12:06:19.456Z,84.68
2022-11-24T12:09:21.337Z,83.23
2022-11-24T12:12:27.232Z,82.99
2022-11-24T12:15:13.650Z,83.47
2022-11-24T12:18:03.073Z,84.29
2022-11-24T12:21:29.806Z,84.06
2022-11-24T12:24:32.125Z,85.44
2022-11-24T12:27:42.653Z,85.82
2022-11-24T12:30:16.579Z,86.59
2022-11-24T12:33:29.588Z,86.48
2022-11-24T12:37:12.458Z,86.21
2022-11-24T12:40:13.339Z,85.74
2022-11-24T12:43:06.229Z,85.75
2022-11-24T12:45:56.497Z,84.26
2022-11-24T12:48:48.036Z,84.62
2022-11-24T12:51:28.509Z,85.28
2022-11-24T12:54:05.388Z,84.58
2022-11-24T12:57:07.045Z,85.05
2022-11-24T13:00:09.461Z,84.38
2022-11-24T13:03:14.350Z,82.37
2022-11-24T13:06:11.039Z,82.54
2022-11-24T13:08:43.620Z,83.41
2022-11-24T13:11:41.696Z,84.18
2022-11-24T13:14:49.807Z,84.34
2022-11-24T13:17:47.470Z,84.75
2022-11-24T13:20:26.256Z,83.98
2022-11-24T13:23:04.340Z,84.31
2022-11-24T13:25:36.793Z,83.96
2022-11-24T13:29:17.962Z,83.99
2022-11-24T13:32:19.328Z,83.49
2022-11-24T13:34:55.091Z,84.36
2022-11-24T13:37:34.985Z,84.51
2022-11-24T13:40:14.279Z,84.27
2022-11-24T13:42:57.894Z,83.77
2022-11-24T13:45:41.990Z,82.16
2022-11-24T13:48:34.277Z,82.73
2022-11-24T13:51:08.963Z,82.93
2022-11-24T13:53:40.857Z,83.00
2022-11-24T13:56:12.887Z,82.67
2022-11-24T13:58:58.444Z,82.84
2022-11-24T14:01:36.915Z,82.99
2022-11-24T14:04:30.646Z,83.37
2022-11-24T14:09:59.081Z,83.84
2022-11-24T14:12:33.818Z,84.29
2022-11-24T14:15:27.189Z,85.05
2022-11-24T14:17:59.179Z,85.00
2022-11-24T14:20:31.100Z,84.73
2022-11-24T14:23:03.174Z,85.17
2022-11-24T14:25:36.022Z,85.44
2022-11-24T14:28:26.546Z,85.38
2022-11-24T14:31:18.257Z,85.82
2022-11-24T14:33:51.400Z,85.63
2022-11-24T14:36:23.456Z,86.00
2022-11-24T14:38:55.513Z,85.52
2022-11-24T14:41:28.489Z,85.72
2022-11-24T14:44:21.503Z,85.93
2022-11-24T14:47:31.370Z,86.47
2022-11-24T14:50:18.180Z,86.30
2022-11-24T14:52:59.968Z,86.58
2022-11-24T14:55:35.412Z,86.97
2022-11-24T14:58:40.537Z,87.51
2022-11-24T15:01:28.742Z,87.70
2022-11-24T15:05:01.105Z,88.27
2022-11-24T15:07:26.621Z,89.09
2022-11-24T15:10:06.026Z,89.49
2022-11-24T15:12:41.815Z,89.71
2022-11-24T15:15:20.593Z,89.79
2022-11-24T15:18:01.099Z,90.12
2022-11-24T15:20:42.404Z,90.87
2022-11-24T15:23:23.793Z,91.11
2022-11-24T15:25:58.177Z,91.38
2022-11-24T15:28:31.472Z,91.56
2022-11-24T15:31:09.185Z,91.49
2022-11-24T15:33:42.354Z,91.50
2022-11-24T15:36:16.760Z,91.61
2022-11-24T15:38:48.770Z,91.89
2022-11-24T15:41:23.225Z,92.42
2022-11-24T15:44:01.843Z,92.05
2022-11-24T15:46:38.289Z,92.53
2022-11-24T15:49:10.497Z,92.60
2022-11-24T15:51:45.279Z,92.98
2022-11-24T15:54:19.061Z,93.44
2022-11-24T15:56:51.186Z,93.83
2022-11-24T15:59:23.306Z,94.27
2022-11-24T16:01:55.378Z,94.06
2022-11-24T16:04:28.088Z,93.96
2022-11-24T16:07:00.785Z,94.07
2022-11-24T16:09:32.754Z,94.54
2022-11-24T16:12:05.240Z,94.89
2022-11-24T16:14:37.583Z,95.50
2022-11-24T16:17:09.815Z,96.08
2022-11-24T16:19:42.286Z,96.40
2022-11-24T16:22:14.354Z,96.16
2022-11-24T16:24:46.340Z,95.88
2022-11-24T16:27:18.319Z,96.45
2022-11-24T16:29:50.341Z,96.72
2022-11-24T16:32:22.333Z,96.83
2022-11-24T16:34:54.281Z,96.60
2022-11-24T16:37:26.392Z,96.47
2022-11-24T16:39:58.643Z,96.77
2022-11-24T16:42:31.428Z,96.81
2022-11-24T16:45:04.214Z,96.71
2022-11-24T16:47:40.533Z,97.43
2022-11-24T16:50:12.811Z,97.56
2022-11-24T16:52:44.870Z,98.60
2022-11-24T16:55:16.949Z,98.72
2022-11-24T16:57:49.274Z,98.84
2022-11-24T17:00:21.466Z,98.37
2022-11-24T17:02:53.677Z,98.07
2022-11-24T17:05:25.817Z,97.55
2022-11-24T17:07:58.780Z,97.75
2022-11-24T17:10:31.134Z,97.89
2022-11-24T17:13:03.130Z,98.95
2022-11-24T17:15:44.506Z,98.63
2022-11-24T17:18:24.529Z,99.30
2022-11-24T17:21:07.890Z,98.85
2022-11-24T17:23:42.053Z,99.26
2022-11-24T17:26:17.004Z,99.12
2022-11-24T17:28:49.034Z,98.97
2022-11-24T17:31:26.042Z,99.00
2022-11-24T17:34:00.364Z,98.89
2022-11-24T17:36:34.139Z,99.22
2022-11-24T17:39:07.536Z,99.80
2022-11-24T17:41:39.678Z,100.00
2022-11-24T17:44:12.763Z,99.97
2022-11-24T17:46:44.848Z,100.00
2022-11-24T17:49:16.952Z,100.00
2022-11-24T17:51:50.628Z,100.00
2022-11-24T17:57:14.645Z,100.00
2022-11-24T17:59:46.729Z,100.00
2022-11-24T18:02:19.592Z,100.00
2022-11-24T18:04:51.692Z,100.00
2022-11-24T18:07:23.724Z,100.00
2022-11-24T18:09:55.848Z,100.00
2022-11-24T18:12:27.984Z,100.00
2022-11-24T18:15:00.237Z,100.00
2022-11-24T18:17:32.228Z,100.00
2022-11-24T18:20:04.657Z,100.00
2022-11-24T18:23:04.141Z,100.00
2022-11-24T18:25:29.767Z,100.00
2022-11-24T18:28:01.747Z,100.00
2022-11-24T18:30:33.735Z,100.00
2022-11-24T18:33:05.778Z,100.00
2022-11-24T18:35:39.725Z,100.00
2022-11-24T18:38:11.768Z,100.00
2022-11-24T18:40:43.810Z,100.00
2022-11-24T18:43:15.886Z,100.00
2022-11-24T18:45:47.947Z,100.00
2022-11-24T18:48:22.117Z,100.00
2022-11-24T18:50:56.752Z,100.00
2022-11-24T18:53:29.482Z,100.00
2022-11-24T18:56:05.454Z,100.00
2022-11-24T18:58:37.669Z,100.00
2022-11-24T19:01:09.640Z,100.00
2022-11-24T19:03:49.241Z,100.00
2022-11-24T19:06:36.320Z,100.00
2022-11-24T19:09:18.737Z,100.00
2022-11-24T19:11:50.726Z,100.00
2022-11-24T19:14:22.702Z,100.00
2022-11-24T19:16:55.551Z,100.00
2022-11-24T19:19:29.052Z,100.00
2022-11-24T19:22:01.608Z,100.00
2022-11-24T19:24:33.803Z,100.00
2022-11-24T19:27:06.084Z,100.00
2022-11-24T19:29:42.821Z,100.00
2022-11-24T19:32:17.017Z,100.00
2022-11-24T19:34:49.029Z,100.00
2022-11-24T19:37:21.571Z,100.00
2022-11-24T19:39:53.730Z,100.00
2022-11-24T19:42:25.898Z,100.00
2022-11-24T19:44:57.935Z,100.00
2022-11-24T19:47:29.998Z,100.00
2022-11-24T19:50:06.022Z,100.00
2022-11-24T19:52:41.057Z,100.00
2022-11-24T19:55:13.115Z,100.00
2022-11-24T19:57:45.221Z,100.00
2022-11-24T20:00:18.060Z,100.00
2022-11-24T20:02:50.711Z,100.00
2022-11-24T20:05:22.746Z,100.00
2022-11-24T20:07:54.914Z,100.00
2022-11-24T20:10:26.993Z,100.00
2022-11-24T20:12:58.946Z,100.00
2022-11-24T20:15:30.927Z,100.00
2022-11-24T20:18:03.007Z,100.00
2022-11-24T20:20:34.970Z,100.00
2022-11-24T20:23:06.949Z,100.00
2022-11-24T20:25:39.091Z,100.00
2022-11-24T20:28:11.745Z,100.00
2022-11-24T20:30:43.762Z,100.00
2022-11-24T20:33:15.739Z,100.00
2022-11-24T20:35:47.728Z,100.00
2022-11-24T20:38:22.196Z,100.00
2022-11-24T20:41:09.870Z,100.00
2022-11-24T20:43:44.021Z,100.00
2022-11-24T20:46:20.732Z,100.00
2022-11-24T20:48:54.758Z,100.00
2022-11-24T20:51:34.013Z,100.00
2022-11-24T20:54:09.318Z,100.00
2022-11-24T20:56:43.544Z,100.00
2022-11-24T20:59:22.395Z,100.00
2022-11-24T21:01:59.249Z,100.00
2022-11-24T21:04:31.469Z,100.00
2022-11-24T21:07:03.927Z,100.00
2022-11-24T21:09:35.951Z,100.00
2022-11-24T21:12:08.041Z,100.00
2022-11-24T21:14:40.691Z,100.00
2022-11-24T21:17:14.285Z,100.00
2022-11-24T21:19:46.724Z,100.00
2022-11-24T21:22:18.775Z,100.00
2022-11-24T21:24:50.743Z,100.00
2022-11-24T21:27:22.747Z,100.00
2022-11-24T21:29:54.737Z,100.00
2022-11-24T21:32:28.152Z,100.00
2022-11-24T21:35:00.247Z,100.00
2022-11-24T21:37:32.311Z,100.00
2022-11-24T21:40:05.228Z,100.00
2022-11-24T21:42:37.255Z,100.00
2022-11-24T21:45:11.671Z,100.00
2022-11-24T21:47:46.476Z,100.00
2022-11-24T21:50:18.531Z,100.00
2022-11-24T21:52:50.699Z,100.00
2022-11-24T21:55:22.707Z,100.00
2022-11-24T21:57:54.900Z,100.00
2022-11-24T22:00:26.918Z,100.00
2022-11-24T22:02:58.862Z,100.00
2022-11-24T22:05:31.082Z,100.00
2022-11-24T22:08:04.648Z,100.00
2022-11-24T22:10:36.736Z,100.00
2022-11-24T22:13:08.898Z,100.00
2022-11-24T22:15:41.152Z,100.00
2022-11-24T22:18:13.347Z,100.00
2022-11-24T22:20:55.714Z,100.00
2022-11-24T22:23:27.758Z,100.00
2022-11-24T22:26:12.433Z,100.00
2022-11-24T22:28:45.553Z,100.00
2022-11-24T22:31:23.224Z,100.00
2022-11-24T22:33:57.376Z,100.00
2022-11-24T22:36:30.551Z,100.00
2022-11-24T22:39:06.057Z,100.00
2022-11-24T22:41:38.366Z,100.00
2022-11-24T22:44:10.401Z,100.00
2022-11-24T22:46:42.594Z,100.00
2022-11-24T22:49:14.753Z,100.00
2022-11-24T22:51:46.868Z,100.00
2022-11-24T22:54:18.981Z,100.00
2022-11-24T22:56:51.139Z,100.00
2022-11-24T22:59:23.330Z,100.00
2022-11-24T23:01:55.688Z,100.00
2022-11-24T23:04:27.773Z,100.00
2022-11-24T23:06:59.832Z,100.00
2022-11-24T23:09:31.995Z,100.00
2022-11-24T23:12:04.246Z,100.00
2022-11-24T23:14:36.521Z,100.00
2022-11-24T23:17:08.829Z,100.00
2022-11-24T23:19:41.253Z,100.00
2022-11-24T23:22:13.277Z,100.00
2022-11-24T23:24:45.297Z,100.00
2022-11-24T23:27:17.653Z,100.00
2022-11-24T23:29:49.780Z,100.00
2022-11-24T23:32:21.965Z,100.00
2022-11-24T23:34:53.996Z,100.00
2022-11-24T23:37:39.252Z,100.00
2022-11-24T23:40:18.321Z,100.00
2022-11-24T23:42:50.620Z,100.00
2022-11-24T23:45:23.233Z,100.00
2022-11-24T23:47:55.422Z,100.00
2022-11-24T23:50:27.555Z,100.00
2022-11-24T23:52:59.812Z,100.00
2022-11-24T23:55:31.842Z,100.00
2022-11-24T23:58:05.346Z,100.00
